Time;durP1;ratioP1;P1;durP2;ratioP2;P2;SDS_P1;SDS_P2;PMS_P1;PMS_P2;Temp;Humidity;BMP_temperature;BMP_pressure;BME280_temperature;BME280_humidity;BME280_pressure;Samples;Min_cycle;Max_cycle;Signal;HPM_P1;HPM_P2
2024/02/24 00:01:59;;;;;;;;;;;;;;;-128.00;-1.00;-1.00;106934;1252;1002599;-71
2024/02/24 00:04:28;;;;;;;;;;;;;;;-128.00;-1.00;-1.00;106870;1254;1002486;-72
2024/02/24 00:06:56;;;;;;;;;;;;;;;-128.00;-1.00;-1.00;106907;1254;1011233;-71
2024/02/24 00:09:24;;;;;;;;;;;;;;;-128.00;-1.00;-1.00;106915;1254;1002197;-71
2024/02/24 00:11:51;;;;;;;;;;;;;;;-128.00;-1.00;-1.00;106897;1252;1002289;-71
2024/02/24 00:14:19;;;;;;;;;;;;;;;-128.00;-1.00;-1.00;106914;1252;1002635;-70
2024/02/24 00:16:46;;;;;;;;;;;;;;;-128.00;-1.00;-1.00;106867;1254;1002143;-72
2024/02/24 00:19:14;;;;;;;;;;;;;;;-128.00;-1.00;-1.00;106967;1252;1002637;-70
2024/02/24 00:21:42;;;;;;;;;;;;;;;-128.00;-1.00;-1.00;106907;1254;1002248;-70
2024/02/24 00:24:09;;;;;;;;;;;;;;;-128.00;-1.00;-1.00;106724;1254;1002161;-71
2024/02/24 00:26:37;;;;;;;;;;;;;;;-128.00;-1.00;-1.00;106438;1254;1002486;-71
2024/02/24 00:29:04;;;;;;;;;;;;;;;-128.00;-1.00;-1.00;106667;1254;1002626;-72
2024/02/24 00:31:31;;;;;;;;;;;;;;;-128.00;-1.00;-1.00;106588;1254;1002777;-72
2024/02/24 00:33:59;;;;;;;;;;;;;;;-128.00;-1.00;-1.00;106659;1254;1002253;-71
2024/02/24 00:36:26;;;;;;;;;;;;;;;-128.00;-1.00;-1.00;106604;1254;1002920;-71
2024/02/24 00:38:54;;;;;;;;;;;;;;;-128.00;-1.00;-1.00;106689;1254;1002589;-71
2024/02/24 00:41:21;;;;;;;;;;;;;;;-128.00;-1.00;-1.00;106644;1256;1002439;-71
2024/02/24 00:43:49;;;;;;;;;;;;;;;-128.00;-1.00;-1.00;106668;1257;1001838;-71
2024/02/24 00:46:16;;;;;;;;;;;;;;;-128.00;-1.00;-1.00;106682;1255;1002039;-70
2024/02/24 00:48:44;;;;;;;;;;;;;;;-128.00;-1.00;-1.00;106587;1256;1002383;-71
2024/02/24 00:51:11;;;;;;;;;;;;;;;-128.00;-1.00;-1.00;106670;1254;1002555;-71
2024/02/24 00:53:39;;;;;;;;;;;;;;;-128.00;-1.00;-1.00;106398;1254;1002474;-70
2024/02/24 00:56:06;;;;;;;;;;;;;;;-128.00;-1.00;-1.00;106722;1253;1002349;-70
2024/02/24 00:58:34;;;;;;;;;;;;;;;-128.00;-1.00;-1.00;106733;1254;1002597;-70
2024/02/24 01:01:01;;;;;;;;;;;;;;;-128.00;-1.00;-1.00;106788;1256;1002420;-70
2024/02/24 01:03:29;;;;;;;;;;;;;;;-128.00;-1.00;-1.00;106746;1253;1002036;-70
2024/02/24 01:05:56;;;;;;;;;;;;;;;-128.00;-1.00;-1.00;106790;1253;1002680;-70
2024/02/24 01:08:24;;;;;;;;;;;;;;;-128.00;-1.00;-1.00;106732;1253;1002535;-70
2024/02/24 01:10:51;;;;;;;;;;;;;;;-128.00;-1.00;-1.00;106798;1253;1002766;-71
2024/02/24 01:13:19;;;;;;;;;;;;;;;-128.00;-1.00;-1.00;106693;1253;1002739;-71
2024/02/24 01:15:46;;;;;;;;;;;;;;;-128.00;-1.00;-1.00;106782;1253;1002524;-71
2024/02/24 01:18:14;;;;;;;;;;;;;;;-128.00;-1.00;-1.00;106714;1253;1002790;-71
2024/02/24 01:20:47;;;;;;;;;;;;;;;-128.00;-1.00;-1.00;106583;1253;1003611;-71
2024/02/24 01:23:16;;;;;;;;;;;;;;;-128.00;-1.00;-1.00;106806;1254;1013565;-70
2024/02/24 01:25:44;;;;;;;;;;;;;;;-128.00;-1.00;-1.00;106874;1254;1002362;-71
2024/02/24 01:28:11;;;;;;;;;;;;;;;-128.00;-1.00;-1.00;106773;1254;1002392;-70
2024/02/24 01:30:38;;;;;;;;;;;;;;;-128.00;-1.00;-1.00;106561;1255;1002664;-70
2024/02/24 01:33:06;;;;;;;;;;;;;;;-128.00;-1.00;-1.00;106645;1254;1002271;-71
2024/02/24 01:35:35;;;;;;;;;;;;;;;-128.00;-1.00;-1.00;106578;1257;1002824;-70
2024/02/24 01:38:03;;;;;;;;;;;;;;;-128.00;-1.00;-1.00;106547;1254;1013183;-71
2024/02/24 01:40:30;;;;;;;;;;;;;;;-128.00;-1.00;-1.00;106486;1254;1001916;-71
2024/02/24 01:42:58;;;;;;;;;;;;;;;-128.00;-1.00;-1.00;106518;1254;1002614;-70
2024/02/24 01:45:25;;;;;;;;;;;;;;;-128.00;-1.00;-1.00;106601;1254;1001465;-71
2024/02/24 01:47:53;;;;;;;;;;;;;;;-128.00;-1.00;-1.00;106611;1259;1002622;-71
2024/02/24 01:50:21;;;;;;;;;;;;;;;-128.00;-1.00;-1.00;106565;1259;1002140;-70
2024/02/24 01:52:49;;;;;;;;;;;;;;;-128.00;-1.00;-1.00;106634;1254;1002528;-71
2024/02/24 01:55:17;;;;;;;;;;;;;;;-128.00;-1.00;-1.00;106598;1254;1002657;-71
2024/02/24 01:57:45;;;;;;;;;;;;;;;-128.00;-1.00;-1.00;106369;1257;1010174;-71
2024/02/24 02:00:12;;;;;;;;;;;;;;;-128.00;-1.00;-1.00;106448;1254;1002878;-71
2024/02/24 02:02:43;;;;;;;;;;;;;;;-128.00;-1.00;-1.00;106690;1254;1012365;-71
2024/02/24 02:05:11;;;;;;;;;;;;;;;-128.00;-1.00;-1.00;106785;1254;1002106;-71
2024/02/24 02:07:38;;;;;;;;;;;;;;;-128.00;-1.00;-1.00;106688;1254;1002024;-71
2024/02/24 02:10:06;;;;;;;;;;;;;;;-128.00;-1.00;-1.00;106613;1254;1002398;-71
2024/02/24 02:12:35;;;;;;;;;;;;;;;-128.00;-1.00;-1.00;106686;1257;1002014;-71
2024/02/24 02:15:03;;;;;;;;;;;;;;;-128.00;-1.00;-1.00;106673;1255;1013490;-71
2024/02/24 02:17:31;;;;;;;;;;;;;;;-128.00;-1.00;-1.00;106473;1254;1002621;-71
2024/02/24 02:20:02;;;;;;;;;;;;;;;-128.00;-1.00;-1.00;106635;1256;1002501;-71
2024/02/24 02:22:30;;;;;;;;;;;;;;;-128.00;-1.00;-1.00;106444;1254;1011089;-72
2024/02/24 02:24:58;;;;;;;;;;;;;;;-128.00;-1.00;-1.00;106547;1256;1013016;-72
2024/02/24 02:27:25;;;;;;;;;;;;;;;-128.00;-1.00;-1.00;106610;1256;1002195;-71
2024/02/24 02:29:52;;;;;;;;;;;;;;;-128.00;-1.00;-1.00;106715;1253;1002256;-72
2024/02/24 02:32:20;;;;;;;;;;;;;;;-128.00;-1.00;-1.00;106783;1257;1002129;-71
2024/02/24 02:34:47;;;;;;;;;;;;;;;-128.00;-1.00;-1.00;106746;1253;1002610;-71
2024/02/24 02:37:15;;;;;;;;;;;;;;;-128.00;-1.00;-1.00;106826;1254;1002343;-71
2024/02/24 02:39:42;;;;;;;;;;;;;;;-128.00;-1.00;-1.00;106725;1259;1001725;-72
2024/02/24 02:42:10;;;;;;;;;;;;;;;-128.00;-1.00;-1.00;106525;1253;1002258;-71
2024/02/24 02:44:37;;;;;;;;;;;;;;;-128.00;-1.00;-1.00;106534;1253;1002333;-71
2024/02/24 02:47:05;;;;;;;;;;;;;;;-128.00;-1.00;-1.00;106560;1253;1002268;-71
2024/02/24 02:49:45;;;;;;;;;;;;;;;-128.00;-1.00;-1.00;106746;1254;1012785;-72
2024/02/24 02:52:13;;;;;;;;;;;;;;;-128.00;-1.00;-1.00;106699;1259;1002409;-72
2024/02/24 02:54:40;;;;;;;;;;;;;;;-128.00;-1.00;-1.00;106772;1253;1002417;-72
2024/02/24 02:57:08;;;;;;;;;;;;;;;-128.00;-1.00;-1.00;106846;1254;1002242;-71
2024/02/24 02:59:35;;;;;;;;;;;;;;;-128.00;-1.00;-1.00;106980;1253;1003040;-71
2024/02/24 03:02:03;;;;;;;;;;;;;;;-128.00;-1.00;-1.00;106456;1259;1002501;-71
2024/02/24 03:04:30;;;;;;;;;;;;;;;-128.00;-1.00;-1.00;106889;1257;1002094;-72
2024/02/24 03:06:58;;;;;;;;;;;;;;;-128.00;-1.00;-1.00;106849;1258;1002460;-71
2024/02/24 03:09:25;;;;;;;;;;;;;;;-128.00;-1.00;-1.00;106786;1254;1002196;-71
2024/02/24 03:11:53;;;;;;;;;;;;;;;-128.00;-1.00;-1.00;106914;1255;1002449;-72
2024/02/24 03:14:20;;;;;;;;;;;;;;;-128.00;-1.00;-1.00;106916;1253;1002187;-72
2024/02/24 03:16:48;;;;;;;;;;;;;;;-128.00;-1.00;-1.00;106855;1255;1003136;-71
2024/02/24 03:19:16;;;;;;;;;;;;;;;-128.00;-1.00;-1.00;106820;1253;1012533;-72
2024/02/24 03:21:44;;;;;;;;;;;;;;;-128.00;-1.00;-1.00;106849;1254;1002869;-71
2024/02/24 03:24:11;;;;;;;;;;;;;;;-128.00;-1.00;-1.00;106945;1254;1002537;-71
2024/02/24 03:26:39;;;;;;;;;;;;;;;-128.00;-1.00;-1.00;106900;1253;1002488;-70
2024/02/24 03:29:06;;;;;;;;;;;;;;;-128.00;-1.00;-1.00;106912;1254;1002172;-69
2024/02/24 03:31:34;;;;;;;;;;;;;;;-128.00;-1.00;-1.00;106899;1255;1002199;-71
2024/02/24 03:34:01;;;;;;;;;;;;;;;-128.00;-1.00;-1.00;106928;1253;1002212;-71
2024/02/24 03:36:29;;;;;;;;;;;;;;;-128.00;-1.00;-1.00;106862;1254;1002411;-71
2024/02/24 03:38:56;;;;;;;;;;;;;;;-128.00;-1.00;-1.00;106812;1253;1002392;-72
2024/02/24 03:41:25;;;;;;;;;;;;;;;-128.00;-1.00;-1.00;106837;1255;1002791;-71
2024/02/24 03:43:53;;;;;;;;;;;;;;;-128.00;-1.00;-1.00;106864;1257;1012842;-71
2024/02/24 03:46:20;;;;;;;;;;;;;;;-128.00;-1.00;-1.00;106884;1254;1002538;-71
2024/02/24 03:48:48;;;;;;;;;;;;;;;-128.00;-1.00;-1.00;106743;1254;1002414;-71
2024/02/24 03:51:16;;;;;;;;;;;;;;;-128.00;-1.00;-1.00;106892;1254;1002672;-71
2024/02/24 03:53:43;;;;;;;;;;;;;;;-128.00;-1.00;-1.00;106882;1254;1002178;-71
2024/02/24 03:56:11;;;;;;;;;;;;;;;-128.00;-1.00;-1.00;106873;1254;1002454;-71
2024/02/24 03:58:40;;;;;;;;;;;;;;;-128.00;-1.00;-1.00;106931;1254;1002381;-71
2024/02/24 04:01:07;;;;;;;;;;;;;;;-128.00;-1.00;-1.00;106913;1254;1010796;-71
2024/02/24 04:03:35;;;;;;;;;;;;;;;-128.00;-1.00;-1.00;106879;1254;1002327;-71
2024/02/24 04:06:03;;;;;;;;;;;;;;;-128.00;-1.00;-1.00;106905;1254;1002731;-71
2024/02/24 04:08:30;;;;;;;;;;;;;;;-128.00;-1.00;-1.00;106873;1254;1013302;-71
2024/02/24 04:10:58;;;;;;;;;;;;;;;-128.00;-1.00;-1.00;106839;1254;1002315;-71
2024/02/24 04:13:26;;;;;;;;;;;;;;;-128.00;-1.00;-1.00;106890;1254;1002257;-71
2024/02/24 04:15:53;;;;;;;;;;;;;;;-128.00;-1.00;-1.00;106942;1253;1002863;-71
2024/02/24 04:18:20;;;;;;;;;;;;;;;-128.00;-1.00;-1.00;106536;1253;1002239;-71
2024/02/24 04:20:48;;;;;;;;;;;;;;;-128.00;-1.00;-1.00;106900;1253;1002844;-71
2024/02/24 04:23:16;;;;;;;;;;;;;;;-128.00;-1.00;-1.00;106887;1254;1002903;-71
2024/02/24 04:25:43;;;;;;;;;;;;;;;-128.00;-1.00;-1.00;106890;1252;1002178;-71
2024/02/24 04:28:12;;;;;;;;;;;;;;;-128.00;-1.00;-1.00;106887;1254;1002449;-71
2024/02/24 04:30:40;;;;;;;;;;;;;;;-128.00;-1.00;-1.00;106618;1254;1012991;-71
2024/02/24 04:33:07;;;;;;;;;;;;;;;-128.00;-1.00;-1.00;106905;1254;1002175;-71
2024/02/24 04:35:35;;;;;;;;;;;;;;;-128.00;-1.00;-1.00;106858;1254;1002232;-71
2024/02/24 04:38:06;;;;;;;;;;;;;;;-128.00;-1.00;-1.00;106880;1253;1002312;-71
2024/02/24 04:40:34;;;;;;;;;;;;;;;-128.00;-1.00;-1.00;106867;1257;1012953;-71
2024/02/24 04:43:02;;;;;;;;;;;;;;;-128.00;-1.00;-1.00;106803;1254;1013004;-71
2024/02/24 04:45:29;;;;;;;;;;;;;;;-128.00;-1.00;-1.00;106860;1252;1002957;-71
2024/02/24 04:47:57;;;;;;;;;;;;;;;-128.00;-1.00;-1.00;106812;1253;1001710;-71
2024/02/24 04:50:25;;;;;;;;;;;;;;;-128.00;-1.00;-1.00;106853;1254;1002595;-71
2024/02/24 04:52:53;;;;;;;;;;;;;;;-128.00;-1.00;-1.00;106866;1254;1001877;-72
2024/02/24 04:55:20;;;;;;;;;;;;;;;-128.00;-1.00;-1.00;106383;1257;1003065;-71
2024/02/24 04:57:48;;;;;;;;;;;;;;;-128.00;-1.00;-1.00;106280;1257;1012964;-70
2024/02/24 05:00:16;;;;;;;;;;;;;;;-128.00;-1.00;-1.00;106408;1256;1002483;-71
2024/02/24 05:02:43;;;;;;;;;;;;;;;-128.00;-1.00;-1.00;106537;1256;1002858;-73
2024/02/24 05:05:12;;;;;;;;;;;;;;;-128.00;-1.00;-1.00;106591;1257;1002380;-72
2024/02/24 05:07:40;;;;;;;;;;;;;;;-128.00;-1.00;-1.00;106465;1256;1012386;-72
2024/02/24 05:10:08;;;;;;;;;;;;;;;-128.00;-1.00;-1.00;106586;1256;1002309;-71
2024/02/24 05:12:36;;;;;;;;;;;;;;;-128.00;-1.00;-1.00;106515;1257;1002191;-71
2024/02/24 05:15:04;;;;;;;;;;;;;;;-128.00;-1.00;-1.00;106465;1257;1002205;-71
2024/02/24 05:17:32;;;;;;;;;;;;;;;-128.00;-1.00;-1.00;106430;1257;1012971;-70
2024/02/24 05:19:59;;;;;;;;;;;;;;;-128.00;-1.00;-1.00;106299;1262;1002098;-70
2024/02/24 05:22:27;;;;;;;;;;;;;;;-128.00;-1.00;-1.00;106290;1257;1002144;-72
2024/02/24 05:24:54;;;;;;;;;;;;;;;-128.00;-1.00;-1.00;106448;1257;1002219;-72
2024/02/24 05:27:22;;;;;;;;;;;;;;;-128.00;-1.00;-1.00;106442;1254;1002614;-71
2024/02/24 05:29:49;;;;;;;;;;;;;;;-128.00;-1.00;-1.00;106639;1254;1003035;-72
2024/02/24 05:32:17;;;;;;;;;;;;;;;-128.00;-1.00;-1.00;106582;1254;1001826;-73
2024/02/24 05:34:45;;;;;;;;;;;;;;;-128.00;-1.00;-1.00;106626;1254;1002645;-70
2024/02/24 05:37:12;;;;;;;;;;;;;;;-128.00;-1.00;-1.00;106635;1254;1002286;-70
2024/02/24 05:39:40;;;;;;;;;;;;;;;-128.00;-1.00;-1.00;106590;1254;1002106;-70
2024/02/24 05:42:07;;;;;;;;;;;;;;;-128.00;-1.00;-1.00;106646;1254;1002211;-71
2024/02/24 05:44:34;;;;;;;;;;;;;;;-128.00;-1.00;-1.00;106596;1254;1002567;-71
2024/02/24 05:47:02;;;;;;;;;;;;;;;-128.00;-1.00;-1.00;106716;1253;1002303;-71
2024/02/24 05:49:29;;;;;;;;;;;;;;;-128.00;-1.00;-1.00;106775;1254;1001838;-71
2024/02/24 05:51:57;;;;;;;;;;;;;;;-128.00;-1.00;-1.00;106616;1254;1002352;-71
2024/02/24 05:54:24;;;;;;;;;;;;;;;-128.00;-1.00;-1.00;106823;1253;1002283;-71
2024/02/24 05:56:52;;;;;;;;;;;;;;;-128.00;-1.00;-1.00;106865;1253;1002702;-71
2024/02/24 05:59:19;;;;;;;;;;;;;;;-128.00;-1.00;-1.00;106969;1253;1002949;-71
2024/02/24 06:01:47;;;;;;;;;;;;;;;-128.00;-1.00;-1.00;106827;1254;1002537;-72
2024/02/24 06:04:17;;;;;;;;;;;;;;;-128.00;-1.00;-1.00;106787;1252;1002442;-72
2024/02/24 06:06:47;;;;;;;;;;;;;;;-128.00;-1.00;-1.00;106768;1253;1013142;-72
2024/02/24 06:09:15;;;;;;;;;;;;;;;-128.00;-1.00;-1.00;106739;1254;1013119;-72
2024/02/24 06:11:43;;;;;;;;;;;;;;;-128.00;-1.00;-1.00;106831;1253;1002265;-72
2024/02/24 06:14:10;;;;;;;;;;;;;;;-128.00;-1.00;-1.00;106767;1254;1002645;-72
2024/02/24 06:16:38;;;;;;;;;;;;;;;-128.00;-1.00;-1.00;106796;1252;1002135;-71
2024/02/24 06:19:05;;;;;;;;;;;;;;;-128.00;-1.00;-1.00;106861;1253;1002223;-71
2024/02/24 06:21:33;;;;;;;;;;;;;;;-128.00;-1.00;-1.00;106780;1255;1002437;-71
2024/02/24 06:24:00;;;;;;;;;;;;;;;-128.00;-1.00;-1.00;106883;1252;1002242;-71
2024/02/24 06:26:28;;;;;;;;;;;;;;;-128.00;-1.00;-1.00;106666;1254;1002893;-71
2024/02/24 06:28:56;;;;;;;;;;;;;;;-128.00;-1.00;-1.00;106933;1253;1002471;-71
2024/02/24 06:31:23;;;;;;;;;;;;;;;-128.00;-1.00;-1.00;106868;1253;1002495;-71
2024/02/24 06:33:50;;;;;;;;;;;;;;;-128.00;-1.00;-1.00;106865;1253;1001694;-71
2024/02/24 06:36:18;;;;;;;;;;;;;;;-128.00;-1.00;-1.00;106811;1253;1002800;-71
2024/02/24 06:38:45;;;;;;;;;;;;;;;-128.00;-1.00;-1.00;106584;1257;1002660;-71
2024/02/24 06:41:14;;;;;;;;;;;;;;;-128.00;-1.00;-1.00;106536;1253;1002195;-71
2024/02/24 06:43:41;;;;;;;;;;;;;;;-128.00;-1.00;-1.00;106869;1253;1013645;-70
2024/02/24 06:46:09;;;;;;;;;;;;;;;-128.00;-1.00;-1.00;106837;1253;1002332;-71
2024/02/24 06:48:36;;;;;;;;;;;;;;;-128.00;-1.00;-1.00;106576;1253;1003031;-72
2024/02/24 06:51:04;;;;;;;;;;;;;;;-128.00;-1.00;-1.00;106930;1252;1002338;-71
2024/02/24 06:53:32;;;;;;;;;;;;;;;-128.00;-1.00;-1.00;106828;1252;1002495;-71
2024/02/24 06:56:09;;;;;;;;;;;;;;;-128.00;-1.00;-1.00;106953;1253;1002338;-72
2024/02/24 06:58:36;;;;;;;;;;;;;;;-128.00;-1.00;-1.00;106803;1257;1012968;-70
2024/02/24 07:01:04;;;;;;;;;;;;;;;-128.00;-1.00;-1.00;106916;1252;1002508;-70
2024/02/24 07:03:32;;;;;;;;;;;;;;;-128.00;-1.00;-1.00;106898;1253;1002136;-71
2024/02/24 07:06:01;;;;;;;;;;;;;;;-128.00;-1.00;-1.00;106904;1253;1010684;-71
2024/02/24 07:08:29;;;;;;;;;;;;;;;-128.00;-1.00;-1.00;106660;1254;1013414;-72
2024/02/24 07:10:56;;;;;;;;;;;;;;;-128.00;-1.00;-1.00;106895;1253;1002580;-71
2024/02/24 07:13:24;;;;;;;;;;;;;;;-128.00;-1.00;-1.00;106908;1253;1001946;-72
2024/02/24 07:15:51;;;;;;;;;;;;;;;-128.00;-1.00;-1.00;106566;1252;1001762;-70
2024/02/24 07:18:19;;;;;;;;;;;;;;;-128.00;-1.00;-1.00;106695;1252;1002287;-71
2024/02/24 07:20:47;;;;;;;;;;;;;;;-128.00;-1.00;-1.00;106959;1252;1002876;-71
2024/02/24 07:23:14;;;;;;;;;;;;;;;-128.00;-1.00;-1.00;106918;1253;1012336;-70
2024/02/24 07:25:42;;;;;;;;;;;;;;;-128.00;-1.00;-1.00;106916;1253;1002407;-71
2024/02/24 07:28:09;;;;;;;;;;;;;;;-128.00;-1.00;-1.00;106937;1253;1002047;-71
2024/02/24 07:30:37;;;;;;;;;;;;;;;-128.00;-1.00;-1.00;106923;1253;1002460;-71
2024/02/24 07:33:04;;;;;;;;;;;;;;;-128.00;-1.00;-1.00;106893;1254;1002860;-71
2024/02/24 07:35:32;;;;;;;;;;;;;;;-128.00;-1.00;-1.00;106813;1253;1002552;-71
2024/02/24 07:37:59;;;;;;;;;;;;;;;-128.00;-1.00;-1.00;106944;1253;1002454;-71
2024/02/24 07:40:27;;;;;;;;;;;;;;;-128.00;-1.00;-1.00;106849;1252;1002853;-71
2024/02/24 07:42:54;;;;;;;;;;;;;;;-128.00;-1.00;-1.00;106841;1254;1002025;-71
2024/02/24 07:45:25;;;;;;;;;;;;;;;-128.00;-1.00;-1.00;106911;1252;1002397;-71
2024/02/24 07:47:56;;;;;;;;;;;;;;;-128.00;-1.00;-1.00;106847;1252;1013685;-71
2024/02/24 07:50:24;;;;;;;;;;;;;;;-128.00;-1.00;-1.00;106511;1252;1013480;-70
2024/02/24 07:52:51;;;;;;;;;;;;;;;-128.00;-1.00;-1.00;106842;1253;1002132;-71
2024/02/24 07:55:19;;;;;;;;;;;;;;;-128.00;-1.00;-1.00;106869;1253;1002228;-71
2024/02/24 07:57:46;;;;;;;;;;;;;;;-128.00;-1.00;-1.00;106857;1254;1002617;-71
2024/02/24 08:00:14;;;;;;;;;;;;;;;-128.00;-1.00;-1.00;106849;1253;1001903;-71
2024/02/24 08:02:41;;;;;;;;;;;;;;;-128.00;-1.00;-1.00;106888;1253;1002022;-71
2024/02/24 08:05:09;;;;;;;;;;;;;;;-128.00;-1.00;-1.00;106840;1253;1002910;-72
2024/02/24 08:07:36;;;;;;;;;;;;;;;-128.00;-1.00;-1.00;106892;1252;1002164;-72
2024/02/24 08:10:04;;;;;;;;;;;;;;;-128.00;-1.00;-1.00;106906;1253;1001966;-72
2024/02/24 08:12:31;;;;;;;;;;;;;;;-128.00;-1.00;-1.00;106865;1253;1002125;-71
2024/02/24 08:14:59;;;;;;;;;;;;;;;-128.00;-1.00;-1.00;106866;1253;1002146;-70
2024/02/24 08:17:27;;;;;;;;;;;;;;;-128.00;-1.00;-1.00;106896;1253;1002322;-72
2024/02/24 08:19:54;;;;;;;;;;;;;;;-128.00;-1.00;-1.00;106876;1252;1002643;-71
2024/02/24 08:22:22;;;;;;;;;;;;;;;-128.00;-1.00;-1.00;106885;1252;1003219;-71
2024/02/24 08:24:49;;;;;;;;;;;;;;;-128.00;-1.00;-1.00;106887;1252;1002066;-69
2024/02/24 08:27:17;;;;;;;;;;;;;;;-128.00;-1.00;-1.00;106934;1253;1002166;-71
2024/02/24 08:29:44;;;;;;;;;;;;;;;-128.00;-1.00;-1.00;106788;1252;1002205;-71
2024/02/24 08:32:12;;;;;;;;;;;;;;;-128.00;-1.00;-1.00;106866;1253;1003001;-70
2024/02/24 08:34:39;;;;;;;;;;;;;;;-128.00;-1.00;-1.00;106890;1253;1002453;-73
2024/02/24 08:37:07;;;;;;;;;;;;;;;-128.00;-1.00;-1.00;106881;1253;1002267;-72
2024/02/24 08:39:35;;;;;;;;;;;;;;;-128.00;-1.00;-1.00;106821;1253;1002022;-71
2024/02/24 08:42:02;;;;;;;;;;;;;;;-128.00;-1.00;-1.00;106831;1253;1002962;-71
2024/02/24 08:44:30;;;;;;;;;;;;;;;-128.00;-1.00;-1.00;106954;1253;1002522;-69
2024/02/24 08:46:57;;;;;;;;;;;;;;;-128.00;-1.00;-1.00;106893;1253;1002494;-71
2024/02/24 08:49:25;;;;;;;;;;;;;;;-128.00;-1.00;-1.00;106801;1252;1003133;-72
2024/02/24 08:51:52;;;;;;;;;;;;;;;-128.00;-1.00;-1.00;106846;1252;1002017;-71
2024/02/24 08:54:20;;;;;;;;;;;;;;;-128.00;-1.00;-1.00;106813;1253;1002179;-70
2024/02/24 08:56:48;;;;;;;;;;;;;;;-128.00;-1.00;-1.00;106810;1253;1010456;-71
2024/02/24 08:59:16;;;;;;;;;;;;;;;-128.00;-1.00;-1.00;106874;1253;1002578;-71
2024/02/24 09:01:43;;;;;;;;;;;;;;;-128.00;-1.00;-1.00;106772;1253;1002097;-71
2024/02/24 09:04:11;;;;;;;;;;;;;;;-128.00;-1.00;-1.00;106843;1253;1002319;-72
2024/02/24 09:06:38;;;;;;;;;;;;;;;-128.00;-1.00;-1.00;106794;1253;1001903;-70
2024/02/24 09:09:06;;;;;;;;;;;;;;;-128.00;-1.00;-1.00;106814;1253;1002340;-72
2024/02/24 09:11:33;;;;;;;;;;;;;;;-128.00;-1.00;-1.00;106869;1253;1002520;-71
2024/02/24 09:14:01;;;;;;;;;;;;;;;-128.00;-1.00;-1.00;106414;1256;1003021;-70
2024/02/24 09:16:29;;;;;;;;;;;;;;;-128.00;-1.00;-1.00;106423;1257;1002219;-71
2024/02/24 09:18:56;;;;;;;;;;;;;;;-128.00;-1.00;-1.00;106351;1257;1002401;-71
2024/02/24 09:21:24;;;;;;;;;;;;;;;-128.00;-1.00;-1.00;106518;1255;1002707;-70
2024/02/24 09:23:51;;;;;;;;;;;;;;;-128.00;-1.00;-1.00;106474;1256;1002390;-71
2024/02/24 09:26:19;;;;;;;;;;;;;;;-128.00;-1.00;-1.00;106623;1256;1002583;-70
2024/02/24 09:28:46;;;;;;;;;;;;;;;-128.00;-1.00;-1.00;106567;1255;1001965;-72
2024/02/24 09:31:14;;;;;;;;;;;;;;;-128.00;-1.00;-1.00;106480;1255;1002355;-72
2024/02/24 09:33:41;;;;;;;;;;;;;;;-128.00;-1.00;-1.00;106550;1256;1002166;-72
2024/02/24 09:36:09;;;;;;;;;;;;;;;-128.00;-1.00;-1.00;106650;1256;1002456;-70
2024/02/24 09:38:37;;;;;;;;;;;;;;;-128.00;-1.00;-1.00;106608;1255;1002396;-71
2024/02/24 09:41:04;;;;;;;;;;;;;;;-128.00;-1.00;-1.00;106480;1255;1002497;-71
2024/02/24 09:43:32;;;;;;;;;;;;;;;-128.00;-1.00;-1.00;106641;1255;1002576;-70
2024/02/24 09:45:59;;;;;;;;;;;;;;;-128.00;-1.00;-1.00;106512;1253;1002421;-70
2024/02/24 09:48:29;;;;;;;;;;;;;;;-128.00;-1.00;-1.00;106841;1253;1002419;-71
2024/02/24 09:50:59;;;;;;;;;;;;;;;-128.00;-1.00;-1.00;106549;1253;1012939;-71
2024/02/24 09:53:27;;;;;;;;;;;;;;;-128.00;-1.00;-1.00;106575;1253;1012987;-69
2024/02/24 09:55:55;;;;;;;;;;;;;;;-128.00;-1.00;-1.00;106624;1253;1002238;-70
2024/02/24 09:58:22;;;;;;;;;;;;;;;-128.00;-1.00;-1.00;106713;1253;1001696;-69
2024/02/24 10:00:50;;;;;;;;;;;;;;;-128.00;-1.00;-1.00;106511;1253;1002326;-68
2024/02/24 10:03:21;;;;;;;;;;;;;;;-128.00;-1.00;-1.00;106533;1257;1002443;-70
2024/02/24 10:05:50;;;;;;;;;;;;;;;-128.00;-1.00;-1.00;106825;1253;1012752;-71
2024/02/24 10:08:18;;;;;;;;;;;;;;;-128.00;-1.00;-1.00;106893;1253;1010411;-70
2024/02/24 10:10:46;;;;;;;;;;;;;;;-128.00;-1.00;-1.00;106830;1253;1002526;-70
2024/02/24 10:13:16;;;;;;;;;;;;;;;-128.00;-1.00;-1.00;106825;1253;1002454;-70
2024/02/24 10:15:44;;;;;;;;;;;;;;;-128.00;-1.00;-1.00;106720;1253;1012677;-70
2024/02/24 10:18:11;;;;;;;;;;;;;;;-128.00;-1.00;-1.00;106715;1253;1012531;-70
2024/02/24 10:20:39;;;;;;;;;;;;;;;-128.00;-1.00;-1.00;106813;1253;1002339;-71
2024/02/24 10:23:07;;;;;;;;;;;;;;;-128.00;-1.00;-1.00;106832;1253;1002687;-68
2024/02/24 10:25:34;;;;;;;;;;;;;;;-128.00;-1.00;-1.00;106915;1251;1002539;-70
2024/02/24 10:28:02;;;;;;;;;;;;;;;-128.00;-1.00;-1.00;107041;1251;1002838;-70
2024/02/24 10:30:29;;;;;;;;;;;;;;;-128.00;-1.00;-1.00;106602;1251;1002035;-71
2024/02/24 10:32:58;;;;;;;;;;;;;;;-128.00;-1.00;-1.00;106604;1251;1001749;-70
2024/02/24 10:35:26;;;;;;;;;;;;;;;-128.00;-1.00;-1.00;106792;1251;1010788;-72
2024/02/24 10:37:54;;;;;;;;;;;;;;;-128.00;-1.00;-1.00;106953;1251;1002405;-70
2024/02/24 10:40:41;;;;;;;;;;;;;;;-128.00;-1.00;-1.00;106860;1251;1012377;-68
2024/02/24 10:43:09;;;;;;;;;;;;;;;-128.00;-1.00;-1.00;106931;1251;1002030;-71
2024/02/24 10:45:36;;;;;;;;;;;;;;;-128.00;-1.00;-1.00;106905;1253;1002798;-71
2024/02/24 10:48:04;;;;;;;;;;;;;;;-128.00;-1.00;-1.00;106976;1251;1002637;-70
2024/02/24 10:50:32;;;;;;;;;;;;;;;-128.00;-1.00;-1.00;106959;1251;1002270;-69
2024/02/24 10:52:59;;;;;;;;;;;;;;;-128.00;-1.00;-1.00;106875;1251;1002073;-71
2024/02/24 10:55:28;;;;;;;;;;;;;;;-128.00;-1.00;-1.00;106815;1251;1002622;-71
2024/02/24 10:57:56;;;;;;;;;;;;;;;-128.00;-1.00;-1.00;106916;1251;1010765;-71
2024/02/24 11:00:23;;;;;;;;;;;;;;;-128.00;-1.00;-1.00;106918;1251;1002951;-70
2024/02/24 11:02:51;;;;;;;;;;;;;;;-128.00;-1.00;-1.00;106934;1251;1002332;-71
2024/02/24 11:05:19;;;;;;;;;;;;;;;-128.00;-1.00;-1.00;106892;1251;1002678;-70
2024/02/24 11:07:47;;;;;;;;;;;;;;;-128.00;-1.00;-1.00;106960;1251;1013399;-70
2024/02/24 11:10:18;;;;;;;;;;;;;;;-128.00;-1.00;-1.00;106714;1256;1002820;-70
2024/02/24 11:12:50;;;;;;;;;;;;;;;-128.00;-1.00;-1.00;106843;1251;1011222;-70
2024/02/24 11:15:18;;;;;;;;;;;;;;;-128.00;-1.00;-1.00;106854;1251;1012763;-72
2024/02/24 11:17:46;;;;;;;;;;;;;;;-128.00;-1.00;-1.00;106871;1251;1012840;-71
2024/02/24 11:20:33;;;;;;;;;;;;;;;-128.00;-1.00;-1.00;106900;1251;1012723;-71
2024/02/24 11:23:23;;;;;;;;;;;;;;;-128.00;-1.00;-1.00;106831;1251;1010384;-70
2024/02/24 11:26:09;;;;;;;;;;;;;;;-128.00;-1.00;-1.00;106482;1256;1011653;-71
2024/02/24 11:28:37;;;;;;;;;;;;;;;-128.00;-1.00;-1.00;106481;1256;1013831;-70
2024/02/24 11:31:04;;;;;;;;;;;;;;;-128.00;-1.00;-1.00;106477;1259;1002118;-71
2024/02/24 11:33:37;;;;;;;;;;;;;;;-128.00;-1.00;-1.00;106550;1255;1002462;-71
2024/02/24 11:36:05;;;;;;;;;;;;;;;-128.00;-1.00;-1.00;106576;1256;1010340;-70
2024/02/24 11:38:33;;;;;;;;;;;;;;;-128.00;-1.00;-1.00;106655;1255;1002262;-71
2024/02/24 11:41:03;;;;;;;;;;;;;;;-128.00;-1.00;-1.00;106557;1255;1002346;-70
2024/02/24 11:43:31;;;;;;;;;;;;;;;-128.00;-1.00;-1.00;106358;1255;1012884;-70
2024/02/24 11:45:59;;;;;;;;;;;;;;;-128.00;-1.00;-1.00;106646;1256;1001909;-71
2024/02/24 11:48:26;;;;;;;;;;;;;;;-128.00;-1.00;-1.00;106492;1256;1002489;-70
2024/02/24 11:50:54;;;;;;;;;;;;;;;-128.00;-1.00;-1.00;106589;1255;1002107;-70
2024/02/24 11:53:21;;;;;;;;;;;;;;;-128.00;-1.00;-1.00;106559;1257;1002295;-70
2024/02/24 11:55:49;;;;;;;;;;;;;;;-128.00;-1.00;-1.00;106450;1255;1002479;-70
2024/02/24 11:58:17;;;;;;;;;;;;;;;-128.00;-1.00;-1.00;106917;1251;1002229;-70
2024/02/24 12:00:45;;;;;;;;;;;;;;;-128.00;-1.00;-1.00;106877;1251;1010845;-70
2024/02/24 12:03:13;;;;;;;;;;;;;;;-128.00;-1.00;-1.00;106926;1251;1002433;-71
2024/02/24 12:05:41;;;;;;;;;;;;;;;-128.00;-1.00;-1.00;106929;1251;1002222;-71
2024/02/24 12:08:10;;;;;;;;;;;;;;;-128.00;-1.00;-1.00;106892;1251;1002409;-71
2024/02/24 12:10:38;;;;;;;;;;;;;;;-128.00;-1.00;-1.00;106931;1251;1012853;-70
2024/02/24 12:13:08;;;;;;;;;;;;;;;-128.00;-1.00;-1.00;106901;1251;1009672;-71
2024/02/24 12:15:36;;;;;;;;;;;;;;;-128.00;-1.00;-1.00;106857;1251;1011031;-71
2024/02/24 12:18:03;;;;;;;;;;;;;;;-128.00;-1.00;-1.00;106748;1251;1002081;-71
2024/02/24 12:20:33;;;;;;;;;;;;;;;-128.00;-1.00;-1.00;106561;1256;1002276;-70
2024/02/24 12:23:04;;;;;;;;;;;;;;;-128.00;-1.00;-1.00;106602;1255;1012234;-72
2024/02/24 12:25:32;;;;;;;;;;;;;;;-128.00;-1.00;-1.00;106551;1256;1010047;-70
2024/02/24 12:27:59;;;;;;;;;;;;;;;-128.00;-1.00;-1.00;106471;1256;1002636;-70
2024/02/24 12:30:27;;;;;;;;;;;;;;;-128.00;-1.00;-1.00;106375;1256;1002653;-70
2024/02/24 12:32:55;;;;;;;;;;;;;;;-128.00;-1.00;-1.00;106417;1256;1012471;-71